Crystal Bay, Minnesota
Current Conditions -  °F | °C
As of 2:53 AM on Saturday 22 Nov 2014 (Local Time) from KFCM Reporting Station
Haze Haze  
Wind Chill: 28°   Ceiling: 800
Heat Index: 36°   Visibility: 4mi
Dew Point: 33°   Wind: 12mph
Humidity: 89%   Direction: 210°SSW
Pressure: 29.82"   Gusts: NA
Location:  44.95°N, 93.58°W
Report Text: KFCM 220853Z AUTO 21010KT 4SM BR OVC008 02/01 A2982 RMK AO2 SLP108 T00220006 56005
Loading
Personal Weather Stations






























Interactive Weather Map New forecast layout! Learn more

10-Day Weather Forecast

Advertisements
Track Severe Weather on mobile